createdAt,value
2017-05-24T00:00:02.828Z,44.48
2017-05-24T00:00:43.313Z,44.48
2017-05-24T00:01:23.852Z,44.58
2017-05-24T00:02:04.334Z,44.48
2017-05-24T00:02:44.830Z,44.58
2017-05-24T00:03:25.333Z,45.15
2017-05-24T00:04:05.820Z,44.96
2017-05-24T00:04:46.310Z,44.77
2017-05-24T00:05:26.801Z,45.35
2017-05-24T00:06:07.922Z,45.73
2017-05-24T00:06:48.416Z,45.15
2017-05-24T00:07:29.652Z,45.45
2017-05-24T00:08:10.132Z,45.73
2017-05-24T00:08:50.627Z,45.64
2017-05-24T00:09:31.134Z,45.54
2017-05-24T00:10:11.617Z,45.54
2017-05-24T00:10:52.116Z,45.64
2017-05-24T00:11:32.602Z,45.64
2017-05-24T00:12:13.094Z,45.42
2017-05-24T00:12:53.596Z,45.45
2017-05-24T00:13:34.658Z,45.42
2017-05-24T00:14:15.150Z,45.42
2017-05-24T00:14:55.633Z,45.71
2017-05-24T00:15:36.134Z,45.71
2017-05-24T00:16:16.619Z,45.23
2017-05-24T00:16:57.116Z,45.42
2017-05-24T00:17:37.611Z,45.81
2017-05-24T00:18:18.805Z,46
2017-05-24T00:18:59.924Z,45.61
2017-05-24T00:19:40.412Z,45.9
2017-05-24T00:20:20.908Z,45.61
2017-05-24T00:21:01.398Z,45.64
2017-05-24T00:21:41.899Z,45.52
2017-05-24T00:22:22.378Z,45.61
2017-05-24T00:23:02.858Z,45.71
2017-05-24T00:24:55.402Z,46.09
2017-05-24T00:25:37.379Z,46.09
2017-05-24T00:26:17.865Z,46.67
2017-05-24T00:26:58.887Z,46.67
2017-05-24T00:27:39.376Z,46.48
2017-05-24T00:28:19.865Z,46.48
2017-05-24T00:29:00.348Z,46.28
2017-05-24T00:29:40.842Z,46.86
2017-05-24T00:30:21.336Z,46.38
2017-05-24T00:31:01.816Z,46.48
2017-05-24T00:31:42.323Z,46.58
2017-05-24T00:32:22.797Z,46.19
2017-05-24T00:33:03.300Z,46.48
2017-05-24T00:33:43.791Z,46.48
2017-05-24T00:34:24.274Z,46.58
2017-05-24T00:35:04.752Z,46.48
2017-05-24T00:35:45.253Z,46.48
2017-05-24T00:36:25.722Z,46.28
2017-05-24T00:37:06.198Z,46.09
2017-05-24T00:37:46.709Z,46.77
2017-05-24T00:38:27.207Z,46.77
2017-05-24T00:39:07.699Z,46.67
2017-05-24T00:39:48.189Z,46.48
2017-05-24T00:40:29.602Z,46.96
2017-05-24T00:41:10.101Z,46.96
2017-05-24T00:41:50.588Z,46.86
2017-05-24T00:42:31.098Z,47.03
2017-05-24T00:43:11.576Z,46.74
2017-05-24T00:43:52.068Z,47.41
2017-05-24T00:44:32.548Z,46.94
2017-05-24T00:45:13.034Z,47.71
2017-05-24T00:45:53.507Z,47.71
2017-05-24T00:46:34.002Z,46.55
2017-05-24T00:47:14.495Z,47.03
2017-05-24T00:47:54.981Z,47.61
2017-05-24T00:48:35.481Z,47.41
2017-05-24T00:49:15.965Z,47.61
2017-05-24T00:49:56.458Z,47.61
2017-05-24T00:50:36.958Z,47.51
2017-05-24T00:51:17.442Z,47.32
2017-05-24T00:51:58.700Z,47.22
2017-05-24T00:52:39.188Z,47.41
2017-05-24T00:53:19.643Z,47.51
2017-05-24T00:54:00.137Z,47.3
2017-05-24T00:54:40.625Z,47.32
2017-05-24T00:55:21.109Z,47.51
2017-05-24T00:56:01.594Z,47.51
2017-05-24T00:56:42.095Z,47.51
2017-05-24T00:57:22.582Z,46.94
2017-05-24T00:58:03.072Z,47.58
2017-05-24T00:58:43.531Z,47.49
2017-05-24T00:59:24.030Z,47.49
2017-05-24T01:00:04.522Z,47.39
2017-05-24T01:00:45.053Z,47.39
2017-05-24T01:01:25.555Z,47.39
2017-05-24T01:02:06.053Z,47.87
2017-05-24T01:02:46.536Z,48.16
2017-05-24T01:04:44.155Z,47.58
2017-05-24T01:05:24.635Z,47.58
2017-05-24T01:06:05.136Z,47.77
2017-05-24T01:06:45.640Z,47.97
2017-05-24T01:07:26.130Z,47.87
2017-05-24T01:08:06.625Z,47.97
2017-05-24T01:08:47.115Z,47.77
2017-05-24T01:09:27.613Z,48.07
2017-05-24T01:10:08.106Z,48.44
2017-05-24T01:10:48.589Z,48.25
2017-05-24T01:11:29.088Z,47.97
2017-05-24T01:12:10.563Z,48.44
2017-05-24T01:14:03.106Z,48.74
2017-05-24T01:14:43.605Z,48.9
2017-05-24T01:15:24.070Z,49.5
2017-05-24T01:16:04.611Z,49.31
2017-05-24T01:16:45.095Z,49.02
2017-05-24T01:17:26.508Z,49.02
2017-05-24T01:18:07.009Z,49.12
2017-05-24T01:18:49.300Z,49.21
2017-05-24T01:19:29.808Z,49.31
2017-05-24T01:20:10.295Z,49.41
2017-05-24T01:20:50.799Z,49.19
2017-05-24T01:21:32.173Z,49.31
2017-05-24T01:22:12.655Z,49.02
2017-05-24T01:22:53.151Z,49.21
2017-05-24T01:23:33.646Z,49.29
2017-05-24T01:24:14.139Z,49.48
2017-05-24T01:24:54.620Z,49.1
2017-05-24T01:25:35.130Z,49.38
2017-05-24T01:26:15.605Z,49.48
2017-05-24T01:26:56.088Z,49.76
2017-05-24T01:27:36.574Z,49.76
2017-05-24T01:28:17.056Z,49.67
2017-05-24T01:28:57.542Z,49.96
2017-05-24T01:29:38.038Z,50.24
2017-05-24T01:30:18.527Z,50.24
2017-05-24T01:30:59.020Z,50.34
2017-05-24T01:31:40.503Z,49.96
2017-05-24T01:32:21.004Z,49.96
2017-05-24T01:33:01.493Z,49.86
2017-05-24T01:33:41.977Z,50.34
2017-05-24T01:34:22.478Z,50.43
2017-05-24T01:35:02.966Z,50.73
2017-05-24T01:35:43.463Z,50.63
2017-05-24T01:38:01.293Z,50.24
2017-05-24T01:38:41.774Z,50.63
2017-05-24T01:39:22.258Z,50.53
2017-05-24T01:40:02.737Z,50.53
2017-05-24T01:40:43.226Z,50.73
2017-05-24T01:41:23.705Z,50.53
2017-05-24T01:42:04.214Z,50.43
2017-05-24T01:42:45.574Z,51.01
2017-05-24T01:43:26.757Z,50.63
2017-05-24T01:44:07.238Z,50.63
2017-05-24T01:44:47.742Z,50.43
2017-05-24T01:45:28.231Z,50.82
2017-05-24T01:46:08.719Z,50.82
2017-05-24T01:46:49.217Z,50.73
2017-05-24T01:47:29.711Z,50.63
2017-05-24T01:48:10.191Z,50.82
2017-05-24T01:48:50.682Z,50.82
2017-05-24T01:49:31.170Z,50.82
2017-05-24T01:50:11.671Z,50.43
2017-05-24T01:50:52.173Z,50.43
2017-05-24T01:51:32.672Z,50.63
2017-05-24T01:52:13.167Z,49.76
2017-05-24T01:52:53.667Z,49.76
2017-05-24T01:53:34.159Z,50.63
2017-05-24T01:54:14.650Z,50.53
2017-05-24T01:54:55.139Z,50.34
2017-05-24T01:55:35.703Z,50.63
2017-05-24T01:56:16.191Z,50.63
2017-05-24T01:56:56.679Z,51.3
2017-05-24T01:57:37.165Z,50.92
2017-05-24T01:58:19.576Z,50.82
2017-05-24T01:59:00.072Z,51.3
2017-05-24T01:59:40.542Z,51.85
2017-05-24T02:00:21.036Z,51.37
2017-05-24T02:01:01.521Z,51.28
2017-05-24T02:01:41.991Z,51.75
2017-05-24T02:02:22.476Z,51.65
2017-05-24T02:03:02.981Z,51.95
2017-05-24T02:03:43.472Z,51.85
2017-05-24T02:04:23.965Z,51.46
2017-05-24T02:05:04.473Z,51.56
2017-05-24T02:05:45.685Z,51.28
2017-05-24T02:06:26.159Z,51.46
2017-05-24T02:07:06.652Z,51.75
2017-05-24T02:08:59.925Z,51.95
2017-05-24T02:09:40.419Z,51.75
2017-05-24T02:10:20.905Z,51.75
2017-05-24T02:11:01.410Z,51.18
2017-05-24T02:12:53.904Z,51.65
2017-05-24T02:13:34.413Z,51.85
2017-05-24T02:14:15.732Z,51.75
2017-05-24T02:14:56.225Z,51.75
2017-05-24T02:17:08.960Z,51.95
2017-05-24T02:17:49.426Z,51.95
2017-05-24T02:20:02.134Z,52.14
2017-05-24T02:20:42.622Z,52.62
2017-05-24T02:21:23.091Z,52.33
2017-05-24T02:22:03.582Z,52.33
2017-05-24T02:22:44.068Z,52.33
2017-05-24T02:23:25.105Z,52.71
2017-05-24T02:24:05.600Z,52.71
2017-05-24T02:24:46.848Z,52.81
2017-05-24T02:25:27.341Z,53
2017-05-24T02:26:07.821Z,52.81
2017-05-24T02:26:48.323Z,52.69
2017-05-24T02:27:28.810Z,53.07
2017-05-24T02:28:09.312Z,52.87
2017-05-24T02:28:49.792Z,53.19
2017-05-24T02:29:30.292Z,52.91
2017-05-24T02:30:10.773Z,53.19
2017-05-24T02:30:51.260Z,53.16
2017-05-24T02:31:31.744Z,53.19
2017-05-24T02:32:12.232Z,53.26
2017-05-24T02:32:53.707Z,53.19
2017-05-24T02:33:34.202Z,53.45
2017-05-24T02:34:14.703Z,53.45
2017-05-24T02:34:55.185Z,53.45
2017-05-24T02:35:35.706Z,53.74
2017-05-24T02:36:16.202Z,53.55
2017-05-24T02:36:56.692Z,53.83
2017-05-24T02:37:37.166Z,53.74
2017-05-24T02:38:17.652Z,53.64
2017-05-24T02:38:58.853Z,53.45
2017-05-24T02:39:39.346Z,53.74
2017-05-24T02:40:19.841Z,54.32
2017-05-24T02:41:00.331Z,53.93
2017-05-24T02:41:40.825Z,53.55
2017-05-24T02:42:21.324Z,53.74
2017-05-24T02:43:01.806Z,53.93
2017-05-24T02:43:42.297Z,54.03
2017-05-24T02:44:22.800Z,53.93
2017-05-24T02:45:04.137Z,54.41
2017-05-24T02:45:44.636Z,54.6
2017-05-24T02:46:25.855Z,54.5
2017-05-24T02:47:06.343Z,54.7
2017-05-24T02:47:46.837Z,54.5
2017-05-24T02:48:27.330Z,54.79
2017-05-24T02:49:07.813Z,54.99
2017-05-24T02:49:48.303Z,54.99
2017-05-24T02:50:28.787Z,55.18
2017-05-24T02:51:09.286Z,54.89
2017-05-24T02:51:49.780Z,54.89
2017-05-24T02:52:30.269Z,54.99
2017-05-24T02:53:10.765Z,54.89
2017-05-24T02:53:51.232Z,55.08
2017-05-24T02:54:31.745Z,55.46
2017-05-24T02:55:12.242Z,55.18
2017-05-24T02:55:52.733Z,55.73
2017-05-24T02:56:33.223Z,55.82
2017-05-24T02:57:13.712Z,55.65
2017-05-24T02:57:54.214Z,55.46
2017-05-24T02:58:34.704Z,55.63
2017-05-24T02:59:15.192Z,55.85
2017-05-24T02:59:55.705Z,55.94
2017-05-24T03:00:36.186Z,55.65
2017-05-24T03:01:16.675Z,55.65
2017-05-24T03:01:57.169Z,55.08
2017-05-24T03:02:37.674Z,54.79
2017-05-24T03:03:18.154Z,54.99
2017-05-24T03:03:59.352Z,55.08
2017-05-24T03:04:39.840Z,55.65
2017-05-24T03:05:20.347Z,55.94
2017-05-24T03:06:00.844Z,55.94
2017-05-24T03:06:41.331Z,55.63
2017-05-24T03:07:21.825Z,55.44
2017-05-24T03:08:02.289Z,55.36
2017-05-24T03:08:42.767Z,55.46
2017-05-24T03:09:23.260Z,55.46
2017-05-24T03:10:03.759Z,55.46
2017-05-24T03:10:44.244Z,55.18
2017-05-24T03:11:24.730Z,54.99
2017-05-24T03:12:05.203Z,55.27
2017-05-24T03:12:45.693Z,55.36
2017-05-24T03:13:26.183Z,55.18
2017-05-24T03:14:07.463Z,55.46
2017-05-24T03:14:47.958Z,54.89
2017-05-24T03:15:28.448Z,55.65
2017-05-24T03:16:08.928Z,55.36
2017-05-24T03:16:49.408Z,55.36
2017-05-24T03:17:29.893Z,55.56
2017-05-24T03:18:10.370Z,55.65
2017-05-24T03:18:50.845Z,55.36
2017-05-24T03:19:31.340Z,55.65
2017-05-24T03:20:11.823Z,55.56
2017-05-24T03:20:52.305Z,55.36
2017-05-24T03:21:32.784Z,55.56
2017-05-24T03:22:14.058Z,54.7
2017-05-24T03:22:54.550Z,54.32
2017-05-24T03:23:35.036Z,54.7
2017-05-24T03:24:15.567Z,54.5
2017-05-24T03:24:55.999Z,54.32
2017-05-24T03:25:36.491Z,54.89
2017-05-24T03:26:16.977Z,54.5
2017-05-24T03:26:57.544Z,53.83
2017-05-24T03:27:38.037Z,53.83
2017-05-24T03:28:18.493Z,53.45
2017-05-24T03:28:59.000Z,53.55
2017-05-24T03:30:56.633Z,53.07
2017-05-24T03:31:37.134Z,53.26
2017-05-24T03:32:17.626Z,53.07
2017-05-24T03:32:58.121Z,53.16
2017-05-24T03:33:38.609Z,53.26
2017-05-24T03:34:19.099Z,53.16
2017-05-24T03:34:59.581Z,52.97
2017-05-24T03:35:40.082Z,53.45
2017-05-24T03:36:20.572Z,53.16
2017-05-24T03:37:01.065Z,53.07
2017-05-24T03:37:41.567Z,53.07
2017-05-24T03:38:22.045Z,53.74
2017-05-24T03:39:02.533Z,53.36
2017-05-24T03:39:43.033Z,53.74
2017-05-24T03:40:24.347Z,53.74
2017-05-24T03:41:04.839Z,53.45
2017-05-24T03:41:45.337Z,54.03
2017-05-24T03:42:25.817Z,54.12
2017-05-24T03:43:06.951Z,54.03
2017-05-24T03:43:47.425Z,54.12
2017-05-24T03:44:27.916Z,54.12
2017-05-24T03:45:08.399Z,54.79
2017-05-24T03:45:48.881Z,54.7
2017-05-24T03:46:29.337Z,55.08
2017-05-24T03:47:09.826Z,54.41
2017-05-24T03:47:50.310Z,54.41
2017-05-24T03:48:30.788Z,54.89
2017-05-24T03:49:11.319Z,54.5
2017-05-24T03:49:51.820Z,54.6
2017-05-24T03:50:32.320Z,55.18
2017-05-24T03:51:13.350Z,55.18
2017-05-24T03:51:53.849Z,54.6
2017-05-24T03:52:34.310Z,54.99
2017-05-24T03:53:14.789Z,55.18
2017-05-24T03:53:55.287Z,54.89
2017-05-24T03:54:35.784Z,54.7
2017-05-24T03:55:16.263Z,54.7
2017-05-24T03:55:56.752Z,54.6
2017-05-24T03:56:37.222Z,55.18
2017-05-24T03:57:18.195Z,55.56
2017-05-24T03:59:05.662Z,55.65
2017-05-24T03:59:46.155Z,55.75
2017-05-24T04:00:26.646Z,56.04
2017-05-24T04:01:07.129Z,56.13
2017-05-24T04:01:47.604Z,55.85
2017-05-24T04:02:28.100Z,56.52
2017-05-24T04:03:08.574Z,56.61
2017-05-24T04:03:49.067Z,55.75
2017-05-24T04:04:29.540Z,56.04
2017-05-24T04:05:10.033Z,56.23
2017-05-24T04:05:51.209Z,56.52
2017-05-24T04:06:31.698Z,56.23
2017-05-24T04:07:12.189Z,56.52
2017-05-24T04:07:52.688Z,56.71
2017-05-24T04:08:34.162Z,56.9
2017-05-24T04:09:14.620Z,57.28
2017-05-24T04:09:55.120Z,56.99
2017-05-24T04:10:35.618Z,56.9
2017-05-24T04:11:16.862Z,57.19
2017-05-24T04:11:57.862Z,56.71
2017-05-24T04:12:38.358Z,57.67
2017-05-24T04:13:19.630Z,57.86
2017-05-24T04:14:00.120Z,57.67
2017-05-24T04:14:40.618Z,58.05
2017-05-24T04:15:21.973Z,57.76
2017-05-24T04:16:03.243Z,58.05
2017-05-24T04:16:43.733Z,57.76
2017-05-24T04:17:24.226Z,57.76
2017-05-24T04:18:04.716Z,58.53
2017-05-24T04:18:45.213Z,58.62
2017-05-24T04:19:25.698Z,57.95
2017-05-24T04:20:06.205Z,57.95
2017-05-24T04:20:46.692Z,58.24
2017-05-24T04:21:27.177Z,57.76
2017-05-24T04:22:07.660Z,56.9
2017-05-24T04:22:48.157Z,56.99
2017-05-24T04:23:28.649Z,56.81
2017-05-24T04:24:09.157Z,56.99
2017-05-24T04:24:49.637Z,56.52
2017-05-24T04:25:30.132Z,56.23
2017-05-24T04:26:10.610Z,56.26
2017-05-24T04:26:51.082Z,55.97
2017-05-24T04:27:31.577Z,56.16
2017-05-24T04:28:12.123Z,56.16
2017-05-24T04:28:52.547Z,55.68
2017-05-24T04:29:33.038Z,55.68
2017-05-24T04:30:13.499Z,55.78
2017-05-24T04:30:53.912Z,55.58
2017-05-24T04:31:35.141Z,55.78
2017-05-24T04:32:15.632Z,55.49
2017-05-24T04:32:56.110Z,54.91
2017-05-24T04:33:37.156Z,55.21
2017-05-24T04:34:18.645Z,55.3
2017-05-24T04:34:59.136Z,54.56
2017-05-24T04:35:39.637Z,54.66
2017-05-24T04:36:20.121Z,54.37
2017-05-24T04:37:00.601Z,54.37
2017-05-24T04:37:41.086Z,54.17
2017-05-24T04:38:21.607Z,53.5
2017-05-24T04:40:39.464Z,52.95
2017-05-24T04:42:57.262Z,51.16
2017-05-24T04:43:37.753Z,50.29
2017-05-24T04:44:18.248Z,50.68
2017-05-24T04:44:58.743Z,49.72
2017-05-24T04:45:39.982Z,49.74
2017-05-24T04:46:20.467Z,49.46
2017-05-24T04:47:00.980Z,48.97
2017-05-24T04:47:41.462Z,48.11
2017-05-24T04:48:21.958Z,47.53
2017-05-24T04:49:02.448Z,47.46
2017-05-24T04:49:42.938Z,47.46
2017-05-24T04:50:23.434Z,46.98
2017-05-24T04:51:04.481Z,46.98
2017-05-24T04:51:44.979Z,46.62
2017-05-24T04:52:25.460Z,46.72
2017-05-24T04:53:05.953Z,46.04
2017-05-24T04:53:46.440Z,45.95
2017-05-24T04:54:26.940Z,45.66
2017-05-24T04:55:07.430Z,45.01
2017-05-24T04:55:47.910Z,44.72
2017-05-24T04:56:28.410Z,44.72
2017-05-24T04:57:08.898Z,44.43
2017-05-24T04:57:49.383Z,43.88
2017-05-24T04:58:29.856Z,43.2
2017-05-24T04:59:10.353Z,43.2
2017-05-24T04:59:50.833Z,42.43
2017-05-24T05:00:31.308Z,42.63
2017-05-24T05:01:11.802Z,42.14
2017-05-24T05:01:52.305Z,42.33
2017-05-24T05:02:32.810Z,42.43
2017-05-24T05:03:13.301Z,42.33
2017-05-24T05:03:53.794Z,42.16
2017-05-24T05:04:34.843Z,42.26
2017-05-24T05:05:15.345Z,42.16
2017-05-24T05:05:55.847Z,41.61
2017-05-24T05:06:37.119Z,41.51
2017-05-24T05:07:17.600Z,41.03
2017-05-24T05:07:58.094Z,40.66
2017-05-24T05:08:38.601Z,40.57
2017-05-24T05:09:19.084Z,40.28
2017-05-24T05:09:59.590Z,40.37
2017-05-24T05:10:40.095Z,39.61
2017-05-24T05:12:37.738Z,38.56
2017-05-24T05:13:18.245Z,38.66
2017-05-24T05:13:58.716Z,39.14
2017-05-24T05:14:39.207Z,38.56
2017-05-24T05:15:19.701Z,38.01
2017-05-24T05:16:00.701Z,37.43
2017-05-24T05:16:41.184Z,37.52
2017-05-24T05:17:21.723Z,37.43
2017-05-24T05:18:03.125Z,37.7
2017-05-24T05:18:43.606Z,37.41
2017-05-24T05:19:24.119Z,37.7
2017-05-24T05:20:04.602Z,37.79
2017-05-24T05:20:45.129Z,38.45
2017-05-24T05:21:25.592Z,38.54
2017-05-24T05:22:06.107Z,38.66
2017-05-24T05:22:46.586Z,38.76
2017-05-24T05:23:27.083Z,38.66
2017-05-24T05:24:07.574Z,38.56
2017-05-24T05:24:48.043Z,38.45
2017-05-24T05:25:28.563Z,38.64
2017-05-24T05:26:09.041Z,39.41
2017-05-24T05:26:49.532Z,39.03
2017-05-24T05:27:30.031Z,39.41
2017-05-24T05:28:10.530Z,39.41
2017-05-24T05:28:51.072Z,39.41
2017-05-24T05:29:31.533Z,38.54
2017-05-24T05:30:12.054Z,38.83
2017-05-24T05:30:52.529Z,38.45
2017-05-24T05:31:33.023Z,38.64
2017-05-24T05:32:13.522Z,38.74
2017-05-24T05:32:54.020Z,39.31
2017-05-24T05:33:35.443Z,38.64
2017-05-24T05:34:15.929Z,38.54
2017-05-24T05:36:13.545Z,38.46
2017-05-24T05:36:54.029Z,38.28
2017-05-24T05:37:34.519Z,37.52
2017-05-24T05:38:15.010Z,37.41
2017-05-24T05:38:55.500Z,38.37
2017-05-24T05:39:36.003Z,37.91
2017-05-24T05:40:16.498Z,37.33
2017-05-24T05:40:56.996Z,37.43
2017-05-24T05:41:37.499Z,36.77
2017-05-24T05:42:18.003Z,36.48
2017-05-24T05:42:58.482Z,36.57
2017-05-24T05:43:38.978Z,36.3
2017-05-24T05:44:20.123Z,35.92
2017-05-24T05:45:00.615Z,35.72
2017-05-24T05:45:41.095Z,35.92
2017-05-24T05:46:21.559Z,35.98
2017-05-24T05:47:02.040Z,36.55
2017-05-24T05:47:42.604Z,36.83
2017-05-24T05:48:23.079Z,38.28
2017-05-24T05:49:03.536Z,38.54
2017-05-24T05:49:44.007Z,39.39
2017-05-24T05:50:25.247Z,39.59
2017-05-24T05:51:05.862Z,39.7
2017-05-24T05:53:23.684Z,37.45
2017-05-24T05:54:04.201Z,36.87
2017-05-24T05:54:44.634Z,36.09
2017-05-24T05:55:25.116Z,36.65
2017-05-24T05:56:05.601Z,36.48
2017-05-24T05:56:47.082Z,36.19
2017-05-24T05:57:27.604Z,36.38
2017-05-24T05:58:08.104Z,35.72
2017-05-24T05:58:48.589Z,35.92
2017-05-24T05:59:29.090Z,36.38
2017-05-24T06:00:09.575Z,37.43
2017-05-24T06:00:50.114Z,38.18
2017-05-24T06:01:30.624Z,38.28
2017-05-24T06:02:11.876Z,38.62
2017-05-24T06:02:52.387Z,39.41
2017-05-24T06:03:32.825Z,38.54
2017-05-24T06:05:45.544Z,38.64
2017-05-24T06:06:26.118Z,37.41
2017-05-24T06:08:38.859Z,35.44
2017-05-24T06:09:19.358Z,34.78
2017-05-24T06:09:59.861Z,34.31
2017-05-24T06:10:40.304Z,33.63
2017-05-24T06:11:20.798Z,33.83
2017-05-24T06:12:01.263Z,34.1
2017-05-24T06:12:41.700Z,34.18
2017-05-24T06:13:22.146Z,34.28
2017-05-24T06:14:03.419Z,34.94
2017-05-24T06:14:43.872Z,34.95
2017-05-24T06:16:41.523Z,33.52
2017-05-24T06:17:22.003Z,33.34
2017-05-24T06:18:02.509Z,32.87
2017-05-24T06:18:43.007Z,32.6
2017-05-24T06:19:24.498Z,31.93
2017-05-24T06:20:05.007Z,31.16
2017-05-24T06:20:45.480Z,31.89
2017-05-24T06:21:25.970Z,33.12
2017-05-24T06:22:06.534Z,34.36
2017-05-24T06:22:47.017Z,34.18
2017-05-24T06:23:27.500Z,34.08
2017-05-24T06:24:08.002Z,34.56
2017-05-24T06:24:48.514Z,35.22
2017-05-24T06:25:29.022Z,34.58
2017-05-24T06:26:09.499Z,34.47
2017-05-24T06:26:50.014Z,34.56
2017-05-24T06:27:31.080Z,34.21
2017-05-24T06:28:11.575Z,33.91
2017-05-24T06:30:25.042Z,34.18
2017-05-24T06:31:05.574Z,34.86
2017-05-24T06:31:46.037Z,34.48
2017-05-24T06:32:26.529Z,33.25
2017-05-24T06:33:07.027Z,32.99
2017-05-24T06:33:47.537Z,31.91
2017-05-24T06:34:28.032Z,32.21
2017-05-24T06:35:08.509Z,30.98
2017-05-24T06:35:48.988Z,30.21
2017-05-24T06:36:29.520Z,31.43
2017-05-24T06:37:10.027Z,32.49
2017-05-24T06:37:50.510Z,32.86
2017-05-24T06:38:31.025Z,32.38
2017-05-24T06:39:11.510Z,31.99
2017-05-24T06:39:52.735Z,31.99
2017-05-24T06:40:33.217Z,31.93
2017-05-24T06:41:13.736Z,31.36
2017-05-24T06:41:54.241Z,29.83
2017-05-24T06:42:35.639Z,29.99
2017-05-24T06:43:16.174Z,30.93
2017-05-24T06:43:56.637Z,31.78
2017-05-24T06:44:37.141Z,31.31
2017-05-24T06:45:18.413Z,31.13
2017-05-24T06:45:58.982Z,30.76
2017-05-24T06:46:39.481Z,30.2
2017-05-24T06:47:20.545Z,29.63
2017-05-24T06:48:01.035Z,28.68
2017-05-24T06:48:41.522Z,28.02
2017-05-24T06:49:22.026Z,27.43
2017-05-24T06:50:02.529Z,27.51
2017-05-24T06:50:43.019Z,28.38
2017-05-24T06:51:24.407Z,28.85
2017-05-24T06:52:05.673Z,29.5
2017-05-24T06:52:47.140Z,28.96
2017-05-24T06:53:27.649Z,29.03
2017-05-24T06:54:08.754Z,28.86
2017-05-24T06:54:49.278Z,28.66
2017-05-24T06:55:29.779Z,27.91
2017-05-24T06:56:10.276Z,27.51
2017-05-24T06:56:50.771Z,27.51
2017-05-24T06:57:31.271Z,27.51
2017-05-24T06:58:11.770Z,27.51
2017-05-24T06:58:52.274Z,27.61
2017-05-24T06:59:32.767Z,28.19
2017-05-24T07:00:13.266Z,29.03
2017-05-24T07:00:53.756Z,29.43
2017-05-24T07:01:34.865Z,29.15
2017-05-24T07:02:15.316Z,28.68
2017-05-24T07:02:55.814Z,28.02
2017-05-24T07:03:36.347Z,27.62
2017-05-24T07:04:16.831Z,27.62
2017-05-24T07:04:57.331Z,28.28
2017-05-24T07:05:37.843Z,29.7
2017-05-24T07:06:18.357Z,30.93
2017-05-24T07:06:58.903Z,32.06
2017-05-24T07:07:39.428Z,33.2
2017-05-24T07:08:19.942Z,32.94
2017-05-24T07:09:00.419Z,32.07
2017-05-24T07:09:40.911Z,32.36
2017-05-24T07:10:21.403Z,32.67
2017-05-24T07:11:01.869Z,32.75
2017-05-24T07:11:43.213Z,32.94
2017-05-24T07:12:23.710Z,33.31
2017-05-24T07:13:04.194Z,33.14
2017-05-24T07:13:44.724Z,33.02
2017-05-24T07:14:25.234Z,32.65
2017-05-24T07:15:05.734Z,32.65
2017-05-24T07:15:46.245Z,32.26
2017-05-24T07:16:26.725Z,32.09
2017-05-24T07:17:07.227Z,32.1
2017-05-24T07:17:47.720Z,31.15
2017-05-24T07:18:28.205Z,30.47
2017-05-24T07:19:08.691Z,30.2
2017-05-24T07:19:49.193Z,29.33
2017-05-24T07:20:29.677Z,29.24
2017-05-24T07:21:10.166Z,28.38
2017-05-24T07:21:50.658Z,28.85
2017-05-24T07:22:31.174Z,29.52
2017-05-24T07:23:11.746Z,29.34
2017-05-24T07:23:52.280Z,28.19
2017-05-24T07:24:32.737Z,27.43
2017-05-24T07:25:13.226Z,27.14
2017-05-24T07:25:53.709Z,27.22
2017-05-24T07:26:34.175Z,27.51
2017-05-24T07:27:14.673Z,27.24
2017-05-24T07:27:55.242Z,26.76
2017-05-24T07:28:36.341Z,26.39
2017-05-24T07:29:16.888Z,25.54
2017-05-24T07:29:57.399Z,24.78
2017-05-24T07:30:37.907Z,24.29
2017-05-24T07:31:18.378Z,24.49
2017-05-24T07:31:58.881Z,24.58
2017-05-24T07:32:39.447Z,24.85
2017-05-24T07:33:19.942Z,26
2017-05-24T07:34:00.443Z,26.49
2017-05-24T07:34:40.943Z,26.03
2017-05-24T07:35:21.507Z,24.87
2017-05-24T07:36:01.988Z,25.13
2017-05-24T07:36:42.515Z,24.87
2017-05-24T07:37:23.015Z,24.39
2017-05-24T07:38:03.638Z,24.57
2017-05-24T07:38:44.108Z,25.62
2017-05-24T07:39:24.578Z,25.79
2017-05-24T07:40:05.104Z,26.75
2017-05-24T07:40:45.576Z,27.78
2017-05-24T07:41:26.025Z,29.12
2017-05-24T07:42:06.495Z,29.6
2017-05-24T07:44:19.252Z,28.39
2017-05-24T07:44:59.726Z,27.62
2017-05-24T07:45:40.260Z,26.7
2017-05-24T07:46:20.740Z,25.92
2017-05-24T07:47:01.300Z,26.67
2017-05-24T07:47:41.824Z,26.18
2017-05-24T07:48:22.324Z,26.48
2017-05-24T07:49:02.807Z,25.92
2017-05-24T07:49:43.315Z,25.14
2017-05-24T07:50:23.846Z,26.27
2017-05-24T07:51:05.006Z,26.75
2017-05-24T07:51:45.509Z,26.65
2017-05-24T07:52:26.144Z,27.81
2017-05-24T07:53:06.622Z,27.42
2017-05-24T07:53:47.096Z,27.42
2017-05-24T07:54:27.562Z,27.33
2017-05-24T07:55:08.773Z,27.32
2017-05-24T07:55:49.225Z,27.17
2017-05-24T07:56:29.761Z,25.54
2017-05-24T07:57:10.286Z,24.78
2017-05-24T07:57:52.321Z,24.22
2017-05-24T07:58:32.805Z,22.67
2017-05-24T07:59:13.323Z,21.82
2017-05-24T07:59:53.919Z,21.04
2017-05-24T08:00:34.572Z,21.8
2017-05-24T08:01:15.213Z,23.6
2017-05-24T08:01:55.776Z,24.29
2017-05-24T08:02:36.348Z,24.46
2017-05-24T08:03:16.947Z,25.05
2017-05-24T08:03:57.567Z,24.1
2017-05-24T08:04:38.176Z,24.29
2017-05-24T08:05:18.802Z,24.38
2017-05-24T08:06:00.068Z,24.58
2017-05-24T08:06:40.678Z,24.85
2017-05-24T08:07:21.307Z,24.88
2017-05-24T08:08:01.891Z,24.38
2017-05-24T08:08:42.532Z,24.48
2017-05-24T08:09:23.289Z,24.39
2017-05-24T08:10:03.810Z,23.65
2017-05-24T08:10:44.385Z,22.96
2017-05-24T08:11:24.981Z,23.24
2017-05-24T08:12:05.603Z,23.15
2017-05-24T08:12:46.191Z,22.97
2017-05-24T08:13:26.795Z,23.8
2017-05-24T08:14:08.304Z,24.77
2017-05-24T08:14:48.891Z,24.57
2017-05-24T08:15:29.472Z,23.44
2017-05-24T08:16:10.118Z,23.43
2017-05-24T08:16:50.752Z,23.91
2017-05-24T08:17:31.400Z,23.63
2017-05-24T08:18:12.053Z,23.16
2017-05-24T08:18:53.432Z,22.19
2017-05-24T08:19:33.984Z,22.27
2017-05-24T08:20:14.597Z,22.17
2017-05-24T08:20:55.691Z,22.27
2017-05-24T08:21:36.239Z,22.38
2017-05-24T08:22:16.808Z,22.19
2017-05-24T08:22:57.424Z,22.17
2017-05-24T08:23:38.067Z,22.48
2017-05-24T08:24:18.748Z,21.81
2017-05-24T08:24:59.522Z,21.35
2017-05-24T08:25:40.955Z,20.67
2017-05-24T08:26:21.589Z,20.39
2017-05-24T08:27:02.243Z,20.76
2017-05-24T08:27:42.822Z,22.08
2017-05-24T08:28:23.397Z,23.04
2017-05-24T08:29:04.012Z,23.33
2017-05-24T08:29:44.512Z,23.62
2017-05-24T08:30:25.040Z,23.25
2017-05-24T08:31:06.036Z,23.73
2017-05-24T08:31:46.548Z,22.28
2017-05-24T08:32:27.087Z,23.04
2017-05-24T08:33:08.444Z,23.9
2017-05-24T08:33:48.949Z,24
2017-05-24T08:34:29.453Z,24.67
2017-05-24T08:35:09.965Z,25.53
2017-05-24T08:35:50.476Z,25.25
2017-05-24T08:36:31.029Z,24.38
2017-05-24T08:37:12.360Z,24.84
2017-05-24T08:37:52.902Z,24.84
2017-05-24T08:38:33.434Z,24.38
2017-05-24T08:39:13.926Z,23.25
2017-05-24T08:39:54.448Z,22.49
2017-05-24T08:40:35.526Z,21.51
2017-05-24T08:41:16.011Z,22.39
2017-05-24T08:41:56.499Z,21.25
2017-05-24T08:42:37.000Z,20.56
2017-05-24T08:43:17.470Z,21.98
2017-05-24T08:43:57.965Z,22.1
2017-05-24T08:44:39.173Z,20.93
2017-05-24T08:46:26.685Z,22.3
2017-05-24T08:47:07.219Z,21.25
2017-05-24T08:47:47.747Z,20.48
2017-05-24T08:48:28.848Z,20.56
2017-05-24T08:49:09.356Z,20.86
2017-05-24T08:49:49.863Z,19.32
2017-05-24T08:50:30.410Z,18.36
2017-05-24T08:51:10.963Z,19.79
2017-05-24T08:51:51.479Z,21.12
2017-05-24T08:52:31.969Z,21.51
2017-05-24T08:53:12.438Z,20.95
2017-05-24T08:53:52.912Z,20.09
2017-05-24T08:54:33.566Z,19.9
2017-05-24T08:55:14.045Z,19.04
2017-05-24T08:55:54.616Z,18.18
2017-05-24T08:56:35.077Z,17.8
2017-05-24T08:57:15.661Z,17.88
2017-05-24T08:57:56.713Z,17.88
2017-05-24T08:58:37.217Z,17.78
2017-05-24T08:59:17.754Z,18.07
2017-05-24T08:59:58.250Z,18.74
2017-05-24T09:00:38.791Z,19.13
2017-05-24T09:01:19.300Z,19.49
2017-05-24T09:01:59.821Z,21.01
2017-05-24T09:02:40.299Z,23.6
2017-05-24T09:03:20.768Z,24.37
2017-05-24T09:04:01.857Z,24.55
2017-05-24T09:04:42.376Z,24.76
2017-05-24T09:05:22.882Z,25.4
2017-05-24T09:06:03.864Z,24.96
2017-05-24T09:06:44.348Z,24.21
2017-05-24T09:08:57.129Z,19.6
2017-05-24T09:09:37.601Z,18.66
2017-05-24T09:10:18.103Z,17.22
2017-05-24T09:10:58.570Z,16.08
2017-05-24T09:11:39.081Z,15.78
2017-05-24T09:12:19.541Z,15.67
2017-05-24T09:13:00.059Z,16.74
2017-05-24T09:13:40.563Z,16.75
2017-05-24T09:14:21.013Z,15.67